Terminal Aerodrome Forecast
Issued by NWS Tulsa, OK

Home | Current Version | Previous Version | Text Only | Print | Product List | Glossary On
Versions: 1 2 3 4 5 6 7 8 9 10 11 12 13 14 15 16
000
FTUS44 KTSA 242300
TAFFSM
TAF
KFSM 242333Z 2500/2524 27010KT P6SM BKN025
     FM250200 26004KT P6SM SCT025
     FM251600 17012G18KT P6SM FEW250=

USA.gov is the U.S. government's official web portal to all federal, state and local government web resources and services.